LFSL 181530Z AUTO 30012KT CAVOK 24/11 Q1016 NOSIG

ElémentsDécodage
LFSL Station météo située sur l'aérodrome de TOUL Rosières
181530Z émis le 18 du mois à 15h30 UTC
AUTO Bulletin édité par un automate
30012KT vent du 300°, 12 noeuds
CAVOK Ceiling And Visibility OK
- Visibilité de 10 Km ou plus
- Pas de nuage au-dessous de 1500m ou au-dessous de l'altitude minimale du secteur la plus élevée (si>1500m) et absence de CB
- pas de temps présent significatif
24/11 température 24°C, point de rosée 11°C
 soit une humidité relative de 44%
Q1016 la pression au niveau de la mer (QNH) est de 1016 hPa
NOSIG Pas de changement significatif prévu au cours des deux heures suivant l'heure de l'observation